Hancock, MI (49930)

9:12 AM EDT on August 28, 2015 (GMT -0400)
Forsman Road | | Change Station
CLOSE
Current Station
Personal Weather Station
Location: Hancock, MI
Elevation: 1116 ft
Nearby Weather Stations

Elev 1116 ft 47.15 °N, 88.52 °W | Updated 11 seconds ago

Scattered Clouds
Scattered Clouds
61.1 °F
Feels Like 61.1 °F
N
0.0
Wind Variable Wind from South
Gusts 0.0 mph

Today
High -- | Low -- °F
--% Chance of Precip.
Yesterday
High -- | Low -- °F
Precip. -- in
7:07 AM 8:42 PM
Waxing Gibbous, 98% visible
Pressure 30.01 in
Visibility 10.0 miles
Clouds Scattered Clouds 6500 ft
Dew Point 59 °F
Humidity 94%
Rainfall 0.00 in
Snow Depth Not available.
UV 1 out of 12
Pollen 9.10 out of 12
Air Quality Not available.
Flu Activity Not available.
METAR KCMX 281253Z AUTO 00000KT 10SM SCT065 15/13 A3001 RMK AO2 SLP163 T01500133 TSNO
Pressure 30.01 in
Visibility 10.0 miles
Clouds Scattered Clouds 6500 ft
Dew Point 59 °F
Humidity 94%
Rainfall 0.00 in
Snow Depth Not available.
UV 1 out of 12
Pollen 9.10 out of 12
Air Quality Not available.
Flu Activity Not available.
METAR KCMX 281253Z AUTO 00000KT 10SM SCT065 15/13 A3001 RMK AO2 SLP163 T01500133 TSNO

10-Day Weather Forecast

×

Almanac

Astronomy

Aug. 28, 2015 Rise Set
Actual Time
Civil Twilight
Nautical Twilight
Astronomical Twilight
Moon
Length of Visible Light
Length of Day
Tomorrow will be .
, % of the Moon is Illuminated

Today's Extremes

State Highs State Lows

Community

WunderPhotos

Upload Photos

1,850,375 photos uploaded!

WunderBlogs® & News

Nearby

Air Quality

  Air Quality AQ Index Pollutant
Not available.

Snow Depth

Station Depth Elevation

Earthquake Activity

City Distance Mag. Time & Date
Minimum magnitude displayed is 2.5.

Coastal Water Temperatures

Place Temperature

Stations

Nearby Weather Stations

Station Location Temp. Windchill Dew Point Humidity Wind Precip. Elev Updated Type